Terminal Aerodrome Forecast
Issued by NWS Flagstaff, AZ

Home | Current Version | Previous Version | Text Only | Print | Product List | Glossary On
Versions: 1 2 3 4 5 6 7 8 9 10 11 12 13 14 15 16 17 18
000
FTUS45 KFGZ 202337
TAFINW
TAF
KINW 202337Z 2100/2124 21022G32KT P6SM SCT250
     FM210200 22015G23KT P6SM SCT250
     FM210500 25009KT P6SM FEW070 SCT200
     FM211500 32011KT P6SM SKC=

USA.gov is the U.S. government's official web portal to all federal, state and local government web resources and services.